createdAt,value
2019-02-07T00:01:25.486Z,75.97
2019-02-07T00:03:53.468Z,67.97
2019-02-07T00:06:21.940Z,67.60
2019-02-07T00:08:49.965Z,62.30
2019-02-07T00:11:17.986Z,64.50
2019-02-07T00:13:45.935Z,63.28
2019-02-07T00:16:14.010Z,72.03
2019-02-07T00:18:42.264Z,86.08
2019-02-07T00:21:10.276Z,84.30
2019-02-07T00:23:38.154Z,83.47
2019-02-07T00:26:06.169Z,75.95
2019-02-07T00:28:34.154Z,87.88
2019-02-07T00:31:02.284Z,101.78
2019-02-07T00:33:30.236Z,99.75
2019-02-07T00:35:58.382Z,102.53
2019-02-07T00:38:26.370Z,88.10
2019-02-07T00:40:54.164Z,95.42
2019-02-07T00:43:22.083Z,95.10
2019-02-07T00:45:50.075Z,76.53
2019-02-07T00:48:18.087Z,88.27
2019-02-07T00:50:47.085Z,100.20
2019-02-07T00:53:14.943Z,104.05
2019-02-07T00:55:43.523Z,100.33
2019-02-07T00:58:11.506Z,96.00
2019-02-07T01:00:39.528Z,82.97
2019-02-07T01:03:07.509Z,78.42
2019-02-07T01:05:35.710Z,75.35
2019-02-07T01:08:04.525Z,71.00
2019-02-07T01:10:32.626Z,68.83
2019-02-07T01:13:00.616Z,66.45
2019-02-07T01:15:28.918Z,64.70
2019-02-07T01:17:56.830Z,70.67
2019-02-07T01:20:24.975Z,68.55
2019-02-07T01:22:53.649Z,74.55
2019-02-07T01:25:21.640Z,72.95
2019-02-07T01:27:49.827Z,67.78
2019-02-07T01:30:19.951Z,65.62
2019-02-07T01:32:48.128Z,62.93
2019-02-07T01:35:16.154Z,70.78
2019-02-07T01:37:45.536Z,67.95
2019-02-07T01:40:15.682Z,67.10
2019-02-07T01:42:43.690Z,71.42
2019-02-07T01:45:14.185Z,65.55
2019-02-07T01:47:42.220Z,72.10
2019-02-07T01:50:12.008Z,65.87
2019-02-07T01:52:40.008Z,69.17
2019-02-07T01:55:08.350Z,68.80
2019-02-07T01:57:36.342Z,68.90
2019-02-07T02:00:07.235Z,74.22
2019-02-07T02:02:35.128Z,75.50
2019-02-07T02:05:03.651Z,67.05
2019-02-07T02:07:31.734Z,71.45
2019-02-07T02:10:00.323Z,71.42
2019-02-07T02:12:28.459Z,75.67
2019-02-07T02:14:56.333Z,68.83
2019-02-07T02:17:24.309Z,98.30
2019-02-07T02:19:52.327Z,88.92
2019-02-07T02:22:20.198Z,83.65
2019-02-07T02:24:48.212Z,76.12
2019-02-07T02:27:16.585Z,79.92
2019-02-07T02:29:44.760Z,72.00
2019-02-07T02:32:13.644Z,72.30
2019-02-07T02:34:41.620Z,69.92
2019-02-07T02:37:09.593Z,71.45
2019-02-07T02:39:37.457Z,72.15
2019-02-07T02:42:05.505Z,86.02
2019-02-07T02:44:33.900Z,75.10
2019-02-07T02:47:01.870Z,76.17
2019-02-07T02:49:29.933Z,79.90
2019-02-07T02:51:57.896Z,95.72
2019-02-07T02:54:47.873Z,86.22
2019-02-07T02:57:15.873Z,95.57
2019-02-07T02:59:43.746Z,94.62
2019-02-07T03:02:31.457Z,77.70
2019-02-07T03:05:28.006Z,79.90
2019-02-07T03:08:14.475Z,72.42
2019-02-07T03:11:17.077Z,76.90
2019-02-07T03:14:02.840Z,77.82
2019-02-07T03:16:50.325Z,70.72
2019-02-07T03:19:36.643Z,71.53
2019-02-07T03:22:23.001Z,84.50
2019-02-07T03:25:10.944Z,74.47
2019-02-07T03:28:13.343Z,74.70
2019-02-07T03:31:09.506Z,81.10
2019-02-07T03:33:59.600Z,86.82
2019-02-07T03:36:50.567Z,89.32
2019-02-07T03:39:43.583Z,81.37
2019-02-07T03:42:37.314Z,82.50
2019-02-07T03:45:31.129Z,82.88
2019-02-07T03:48:24.280Z,81.45
2019-02-07T03:51:17.658Z,77.80
2019-02-07T03:54:03.838Z,85.75
2019-02-07T03:56:51.328Z,93.37
2019-02-07T03:59:51.185Z,90.90
2019-02-07T04:02:41.671Z,94.22
2019-02-07T04:05:34.898Z,105.07
2019-02-07T04:08:26.784Z,100.60
2019-02-07T04:11:13.207Z,93.15
2019-02-07T04:14:00.863Z,90.50
2019-02-07T04:16:44.732Z,93.35
2019-02-07T04:19:38.313Z,94.20
2019-02-07T04:22:23.831Z,98.15
2019-02-07T04:25:23.085Z,93.40
2019-02-07T04:28:26.216Z,95.05
2019-02-07T04:31:25.749Z,86.55
2019-02-07T04:34:11.416Z,96.17
2019-02-07T04:36:57.463Z,98.78
2019-02-07T04:39:43.545Z,97.22
2019-02-07T04:42:31.108Z,96.85
2019-02-07T04:45:18.791Z,96.37
2019-02-07T04:48:21.114Z,96.87
2019-02-07T04:51:00.560Z,87.70
2019-02-07T04:53:48.568Z,90.67
2019-02-07T04:56:26.900Z,91.10
2019-02-07T04:59:24.072Z,78.42
2019-02-07T05:02:09.952Z,87.47
2019-02-07T05:05:06.146Z,91.08
2019-02-07T05:08:05.607Z,81.97
2019-02-07T05:10:51.557Z,88.27
2019-02-07T05:13:51.818Z,86.05
2019-02-07T05:16:39.637Z,93.75
2019-02-07T05:19:20.113Z,90.47
2019-02-07T05:22:16.823Z,92.70
2019-02-07T05:25:06.334Z,87.25
2019-02-07T05:27:45.191Z,83.75
2019-02-07T05:30:48.451Z,92.70
2019-02-07T05:33:34.488Z,94.92
2019-02-07T05:36:36.735Z,97.62
2019-02-07T05:39:15.856Z,97.20
2019-02-07T05:41:53.282Z,138.28
2019-02-07T05:44:46.516Z,137.07
2019-02-07T05:47:48.633Z,117.60
2019-02-07T05:50:34.322Z,123.20
2019-02-07T05:53:24.363Z,138.07
2019-02-07T05:56:20.715Z,106.45
2019-02-07T05:58:59.417Z,91.97
2019-02-07T06:01:40.501Z,89.15
2019-02-07T06:04:24.076Z,94.87
2019-02-07T06:07:06.868Z,92.57
2019-02-07T06:09:54.271Z,92.05
2019-02-07T06:12:57.448Z,88.10
2019-02-07T06:15:45.031Z,81.05
2019-02-07T06:18:35.152Z,80.35
2019-02-07T06:21:10.844Z,78.20
2019-02-07T06:23:45.238Z,88.82
2019-02-07T06:26:35.423Z,88.58
2019-02-07T06:29:21.445Z,78.35
2019-02-07T06:32:00.173Z,78.45
2019-02-07T06:34:46.126Z,82.47
2019-02-07T06:37:30.002Z,71.95
2019-02-07T06:40:16.291Z,80.25
2019-02-07T06:43:09.439Z,83.72
2019-02-07T06:45:55.865Z,80.55
2019-02-07T06:48:45.985Z,87.53
2019-02-07T06:51:39.202Z,77.27
2019-02-07T06:54:23.410Z,75.52
2019-02-07T06:57:16.749Z,76.85
2019-02-07T07:00:03.449Z,78.67
2019-02-07T07:02:49.462Z,89.85
2019-02-07T07:05:32.146Z,132.87
2019-02-07T07:08:11.542Z,120.75
2019-02-07T07:10:54.984Z,103.25
2019-02-07T07:13:51.404Z,95.85
2019-02-07T07:16:48.148Z,88.70
2019-02-07T07:19:38.469Z,85.00
2019-02-07T07:22:24.844Z,96.65
2019-02-07T07:25:04.092Z,106.63
2019-02-07T07:27:43.020Z,107.27
2019-02-07T07:30:37.964Z,117.17
2019-02-07T07:33:20.201Z,105.80
2019-02-07T07:36:06.501Z,88.35
2019-02-07T07:38:59.727Z,74.50
2019-02-07T07:41:43.771Z,72.03
2019-02-07T07:44:29.744Z,85.45
2019-02-07T07:47:35.690Z,79.32
2019-02-07T07:50:28.035Z,67.27
2019-02-07T07:53:18.267Z,57.13
2019-02-07T07:56:14.376Z,57.75
2019-02-07T07:58:56.154Z,54.67
2019-02-07T08:01:42.325Z,52.25
2019-02-07T08:04:16.172Z,52.70
2019-02-07T08:07:02.157Z,63.35
2019-02-07T08:09:47.212Z,53.08
2019-02-07T08:12:37.137Z,57.10
2019-02-07T08:15:22.433Z,53.60
2019-02-07T08:18:12.981Z,56.30
2019-02-07T08:20:59.217Z,55.10
2019-02-07T08:23:47.710Z,58.63
2019-02-07T08:26:38.158Z,58.90
2019-02-07T08:29:18.484Z,58.25
2019-02-07T08:32:04.818Z,54.27
2019-02-07T08:34:46.401Z,55.88
2019-02-07T08:37:33.997Z,53.45
2019-02-07T08:40:21.438Z,58.28
2019-02-07T08:43:11.836Z,52.60
2019-02-07T08:45:59.411Z,49.42
2019-02-07T08:48:40.150Z,54.38
2019-02-07T08:51:30.526Z,61.00
2019-02-07T08:54:17.647Z,60.15
2019-02-07T08:57:20.098Z,48.13
2019-02-07T09:00:08.905Z,48.80
2019-02-07T09:02:51.759Z,48.80
2019-02-07T09:05:51.039Z,52.70
2019-02-07T09:08:36.455Z,48.78
2019-02-07T09:11:22.410Z,54.83
2019-02-07T09:14:15.657Z,53.35
2019-02-07T09:17:00.003Z,53.85
2019-02-07T09:19:47.312Z,44.55
2019-02-07T09:22:34.791Z,50.67
2019-02-07T09:25:34.419Z,52.40
2019-02-07T09:28:15.055Z,60.20
2019-02-07T09:31:02.695Z,61.80
2019-02-07T09:33:53.177Z,56.20
2019-02-07T09:36:43.410Z,51.50
2019-02-07T09:39:48.672Z,55.78
2019-02-07T09:42:34.901Z,68.33
2019-02-07T09:45:37.034Z,57.67
2019-02-07T09:48:23.047Z,62.75
2019-02-07T09:51:16.136Z,60.28
2019-02-07T09:54:06.393Z,53.50
2019-02-07T09:56:56.579Z,55.35
2019-02-07T09:59:39.883Z,56.65
2019-02-07T10:02:39.697Z,58.28
2019-02-07T10:05:28.728Z,60.52
2019-02-07T10:08:22.237Z,58.40
2019-02-07T10:11:15.594Z,55.73
2019-02-07T10:14:01.621Z,51.58
2019-02-07T10:16:53.854Z,35.08
2019-02-07T10:19:48.073Z,33.18
2019-02-07T10:22:36.269Z,29.50
2019-02-07T10:25:18.091Z,33.23
2019-02-07T10:28:11.318Z,30.15
2019-02-07T10:31:16.870Z,35.05
2019-02-07T10:34:09.127Z,38.30
2019-02-07T10:37:02.410Z,34.92
2019-02-07T10:40:04.891Z,40.38
2019-02-07T10:42:51.116Z,43.08
2019-02-07T10:45:57.131Z,44.38
2019-02-07T10:48:44.729Z,44.93
2019-02-07T10:51:30.906Z,44.67
2019-02-07T10:54:21.062Z,44.65
2019-02-07T10:57:05.055Z,44.20
2019-02-07T10:59:50.924Z,46.08
2019-02-07T11:02:47.845Z,43.13
2019-02-07T11:05:33.878Z,43.45
2019-02-07T11:08:30.505Z,41.08
2019-02-07T11:11:16.875Z,44.35
2019-02-07T11:14:12.227Z,45.65
2019-02-07T11:16:59.682Z,36.77
2019-02-07T11:19:52.951Z,41.55
2019-02-07T11:22:40.251Z,39.38
2019-02-07T11:25:42.412Z,38.92
2019-02-07T11:28:29.847Z,37.10
2019-02-07T11:31:04.244Z,36.75
2019-02-07T11:33:51.896Z,37.90
2019-02-07T11:36:53.800Z,39.95
2019-02-07T11:39:43.564Z,43.15
2019-02-07T11:42:29.802Z,40.58
2019-02-07T11:45:08.326Z,40.70
2019-02-07T11:47:55.817Z,42.60
2019-02-07T11:50:43.155Z,41.28
2019-02-07T11:53:26.028Z,41.33
2019-02-07T11:56:10.324Z,39.80
2019-02-07T11:58:56.456Z,45.25
2019-02-07T12:01:43.818Z,37.00
2019-02-07T12:04:24.851Z,39.65
2019-02-07T12:07:17.748Z,31.25
2019-02-07T12:09:55.133Z,34.20
2019-02-07T12:12:41.231Z,31.07
2019-02-07T12:15:33.806Z,29.90
2019-02-07T12:18:24.360Z,30.08
2019-02-07T12:21:03.335Z,30.85
2019-02-07T12:23:59.729Z,30.20
2019-02-07T12:26:39.073Z,28.65
2019-02-07T12:29:32.662Z,32.05
2019-02-07T12:32:32.224Z,37.08
2019-02-07T12:35:25.840Z,34.35
2019-02-07T12:38:13.327Z,37.93
2019-02-07T12:41:09.616Z,35.35
2019-02-07T12:43:55.804Z,44.23
2019-02-07T12:46:43.045Z,37.35
2019-02-07T12:49:46.167Z,38.67
2019-02-07T12:52:26.073Z,43.08
2019-02-07T12:55:12.326Z,45.28
2019-02-07T12:57:58.855Z,44.58
2019-02-07T13:00:49.054Z,43.10
2019-02-07T13:03:36.369Z,44.27
2019-02-07T13:06:25.338Z,44.05
2019-02-07T13:09:25.197Z,42.23
2019-02-07T13:12:21.592Z,40.92
2019-02-07T13:15:24.513Z,41.45
2019-02-07T13:18:11.024Z,41.68
2019-02-07T13:21:04.480Z,50.12
2019-02-07T13:23:59.296Z,41.53
2019-02-07T13:26:44.329Z,41.95
2019-02-07T13:29:41.263Z,33.70
2019-02-07T13:32:27.373Z,54.45
2019-02-07T13:35:23.956Z,35.30
2019-02-07T13:38:13.904Z,59.53
2019-02-07T13:41:09.498Z,26.82
2019-02-07T13:43:51.587Z,31.68
2019-02-07T13:46:49.241Z,36.70
2019-02-07T13:49:35.120Z,42.40
2019-02-07T13:52:28.370Z,21.57
2019-02-07T13:55:16.927Z,27.98
2019-02-07T13:58:19.373Z,28.98
2019-02-07T14:01:06.805Z,24.60
2019-02-07T14:04:09.935Z,21.23
2019-02-07T14:07:01.991Z,25.60
2019-02-07T14:09:57.313Z,26.40
2019-02-07T14:12:53.818Z,22.45
2019-02-07T14:15:44.127Z,23.55
2019-02-07T14:18:32.739Z,22.27
2019-02-07T14:21:32.292Z,32.58
2019-02-07T14:24:25.550Z,31.75
2019-02-07T14:27:25.047Z,36.58
2019-02-07T14:30:27.786Z,37.90
2019-02-07T14:33:13.297Z,22.48
2019-02-07T14:36:00.693Z,24.90
2019-02-07T14:38:51.065Z,24.52
2019-02-07T14:41:31.797Z,24.67
2019-02-07T14:44:22.085Z,23.85
2019-02-07T14:46:51.024Z,25.82
2019-02-07T14:49:19.694Z,25.15
2019-02-07T14:51:47.981Z,22.87
2019-02-07T14:54:17.498Z,24.02
2019-02-07T14:56:45.496Z,25.08
2019-02-07T14:59:13.886Z,25.90
2019-02-07T15:01:41.859Z,25.57
2019-02-07T15:04:11.852Z,26.95
2019-02-07T15:06:40.568Z,24.12
2019-02-07T15:09:13.908Z,25.45
2019-02-07T15:11:42.454Z,29.42
2019-02-07T15:14:11.373Z,26.80
2019-02-07T15:16:40.096Z,26.27
2019-02-07T15:19:08.252Z,28.50
2019-02-07T15:21:36.591Z,28.55
2019-02-07T15:24:08.287Z,28.55
2019-02-07T15:26:35.470Z,27.35
2019-02-07T15:29:04.283Z,30.95
2019-02-07T15:31:32.275Z,29.00
2019-02-07T15:34:00.421Z,30.60
2019-02-07T15:36:28.429Z,31.80
2019-02-07T15:38:56.371Z,31.73
2019-02-07T15:41:24.662Z,29.27
2019-02-07T15:43:52.586Z,30.30
2019-02-07T15:46:20.665Z,33.18
2019-02-07T15:48:48.671Z,33.73
2019-02-07T15:51:16.761Z,33.90
2019-02-07T15:53:44.543Z,31.00
2019-02-07T15:56:12.892Z,33.58
2019-02-07T15:59:01.909Z,33.88
2019-02-07T16:01:50.541Z,30.88
2019-02-07T16:04:21.906Z,32.90
2019-02-07T16:06:49.859Z,36.00
2019-02-07T16:09:18.148Z,34.03
2019-02-07T16:11:46.212Z,33.13
2019-02-07T16:14:14.235Z,29.70
2019-02-07T16:16:42.225Z,34.43
2019-02-07T16:19:10.240Z,31.82
2019-02-07T16:21:38.420Z,36.58
2019-02-07T16:24:06.898Z,33.30
2019-02-07T16:26:34.754Z,31.73
2019-02-07T16:29:03.565Z,38.48
2019-02-07T16:31:33.313Z,32.85
2019-02-07T16:34:01.180Z,34.85
2019-02-07T16:36:30.235Z,35.20
2019-02-07T16:38:58.521Z,35.20
2019-02-07T16:41:26.577Z,34.55
2019-02-07T16:43:54.537Z,30.68
2019-02-07T16:46:22.585Z,33.85
2019-02-07T16:48:53.503Z,29.35
2019-02-07T16:51:21.510Z,32.70
2019-02-07T16:53:53.341Z,32.65
2019-02-07T16:56:21.535Z,72.67
2019-02-07T16:58:49.610Z,160.78
2019-02-07T17:01:17.609Z,174.65
2019-02-07T17:03:45.513Z,282.48
2019-02-07T17:06:13.636Z,308.75
2019-02-07T17:08:41.937Z,336.82
2019-02-07T17:11:10.595Z,130.52
2019-02-07T17:13:38.557Z,154.93
2019-02-07T17:16:07.159Z,313.62
2019-02-07T17:18:35.308Z,61.25
2019-02-07T17:21:11.547Z,53.55
2019-02-07T17:23:34.261Z,44.35
2019-02-07T17:26:02.300Z,40.03
2019-02-07T17:28:30.383Z,39.98
2019-02-07T17:30:58.408Z,41.50
2019-02-07T17:33:27.192Z,43.25
2019-02-07T17:35:55.876Z,56.92
2019-02-07T17:38:23.758Z,42.03
2019-02-07T17:40:52.173Z,107.47
2019-02-07T17:43:20.704Z,105.70
2019-02-07T17:45:48.785Z,268.88
2019-02-07T17:48:16.725Z,62.65
2019-02-07T17:50:44.861Z,287.05
2019-02-07T17:53:13.092Z,70.65
2019-02-07T17:55:41.075Z,55.75
2019-02-07T17:58:12.710Z,67.87
2019-02-07T18:00:47.935Z,105.72
2019-02-07T18:03:15.905Z,73.22
2019-02-07T18:05:44.095Z,95.03
2019-02-07T18:08:12.300Z,125.87
2019-02-07T18:10:40.709Z,143.52
2019-02-07T18:13:18.123Z,144.32
2019-02-07T18:15:46.638Z,62.23
2019-02-07T18:18:14.978Z,47.65
2019-02-07T18:20:43.069Z,43.65
2019-02-07T18:23:11.097Z,37.45
2019-02-07T18:25:38.984Z,41.30
2019-02-07T18:28:07.343Z,49.15
2019-02-07T18:30:35.412Z,42.40
2019-02-07T18:33:04.076Z,38.85
2019-02-07T18:35:32.100Z,34.27
2019-02-07T18:37:59.949Z,34.05
2019-02-07T18:40:28.178Z,36.20
2019-02-07T18:42:56.024Z,36.85
2019-02-07T18:45:24.486Z,35.88
2019-02-07T18:47:52.590Z,39.58
2019-02-07T18:50:31.756Z,34.30
2019-02-07T18:52:59.771Z,37.33
2019-02-07T18:55:27.754Z,35.92
2019-02-07T18:57:55.789Z,36.50
2019-02-07T19:00:25.785Z,34.90
2019-02-07T19:02:54.058Z,34.67
2019-02-07T19:05:22.347Z,36.28
2019-02-07T19:07:50.628Z,34.00
2019-02-07T19:10:20.369Z,37.10
2019-02-07T19:12:48.563Z,35.13
2019-02-07T19:15:26.724Z,31.90
2019-02-07T19:17:54.675Z,40.43
2019-02-07T19:20:22.603Z,33.88
2019-02-07T19:22:50.561Z,34.38
2019-02-07T19:25:18.676Z,34.75
2019-02-07T19:27:47.252Z,79.87
2019-02-07T19:30:23.846Z,180.18
2019-02-07T19:32:52.172Z,201.62
2019-02-07T19:35:20.116Z,75.47
2019-02-07T19:37:48.379Z,59.83
2019-02-07T19:40:16.557Z,36.38
2019-02-07T19:42:44.453Z,59.20
2019-02-07T19:45:13.782Z,55.95
2019-02-07T19:47:41.874Z,70.57
2019-02-07T19:50:12.682Z,48.98
2019-02-07T19:52:40.951Z,52.33
2019-02-07T19:55:11.767Z,52.85
2019-02-07T19:57:39.738Z,40.65
2019-02-07T20:00:10.981Z,53.58
2019-02-07T20:02:39.662Z,45.40
2019-02-07T20:05:08.816Z,49.23
2019-02-07T20:07:36.792Z,41.70
2019-02-07T20:10:07.851Z,42.80
2019-02-07T20:12:35.688Z,47.80
2019-02-07T20:15:07.795Z,39.55
2019-02-07T20:17:39.170Z,41.05
2019-02-07T20:20:08.750Z,49.88
2019-02-07T20:22:36.604Z,42.65
2019-02-07T20:25:05.953Z,39.88
2019-02-07T20:27:33.884Z,37.50
2019-02-07T20:30:02.263Z,43.10
2019-02-07T20:32:30.802Z,52.75
2019-02-07T20:34:58.906Z,58.35
2019-02-07T20:37:26.777Z,59.38
2019-02-07T20:39:54.559Z,70.60
2019-02-07T20:42:22.442Z,86.53
2019-02-07T20:44:50.960Z,165.12
2019-02-07T20:47:18.709Z,155.07
2019-02-07T20:49:46.579Z,140.15
2019-02-07T20:52:14.557Z,94.60
2019-02-07T20:54:43.347Z,125.05
2019-02-07T20:57:11.375Z,120.47
2019-02-07T20:59:39.361Z,133.40
2019-02-07T21:02:07.374Z,97.95
2019-02-07T21:04:36.395Z,152.62
2019-02-07T21:07:04.564Z,138.95
2019-02-07T21:09:32.418Z,144.75
2019-02-07T21:12:00.496Z,154.23
2019-02-07T21:14:28.362Z,130.87
2019-02-07T21:16:56.362Z,106.67
2019-02-07T21:19:24.955Z,93.85
2019-02-07T21:21:52.856Z,93.72
2019-02-07T21:24:21.005Z,99.90
2019-02-07T21:26:49.209Z,102.00
2019-02-07T21:29:17.676Z,154.23
2019-02-07T21:31:45.526Z,99.75
2019-02-07T21:34:13.359Z,119.30
2019-02-07T21:36:41.177Z,118.82
2019-02-07T21:39:10.690Z,154.93
2019-02-07T21:41:38.560Z,197.72
2019-02-07T21:44:06.511Z,91.50
2019-02-07T21:46:34.542Z,73.42
2019-02-07T21:49:02.721Z,61.37
2019-02-07T21:51:33.943Z,59.03
2019-02-07T21:54:01.823Z,50.88
2019-02-07T21:56:29.682Z,49.67
2019-02-07T21:58:57.697Z,50.15
2019-02-07T22:01:25.569Z,51.20
2019-02-07T22:03:53.579Z,52.98
2019-02-07T22:06:21.556Z,52.85
2019-02-07T22:08:49.527Z,49.60
2019-02-07T22:11:17.388Z,49.85
2019-02-07T22:13:45.246Z,48.70
2019-02-07T22:16:13.159Z,51.50
2019-02-07T22:18:41.301Z,49.08
2019-02-07T22:21:09.227Z,51.18
2019-02-07T22:23:37.064Z,47.75
2019-02-07T22:26:05.066Z,44.15
2019-02-07T22:28:32.913Z,46.70
2019-02-07T22:31:00.805Z,46.53
2019-02-07T22:33:28.559Z,41.33
2019-02-07T22:35:56.683Z,42.98
2019-02-07T22:38:24.631Z,44.13
2019-02-07T22:40:53.374Z,44.05
2019-02-07T22:43:21.219Z,45.48
2019-02-07T22:45:49.097Z,43.42
2019-02-07T22:48:16.933Z,45.35
2019-02-07T22:50:44.900Z,47.40
2019-02-07T22:53:15.567Z,47.78
2019-02-07T22:55:43.984Z,43.30
2019-02-07T22:58:12.136Z,45.83
2019-02-07T23:01:20.414Z,40.80
2019-02-07T23:04:03.618Z,39.35
2019-02-07T23:06:31.670Z,44.95
2019-02-07T23:09:00.014Z,42.05
2019-02-07T23:11:28.277Z,41.90
2019-02-07T23:13:56.343Z,41.40
2019-02-07T23:16:24.625Z,43.02
2019-02-07T23:18:52.883Z,46.08
2019-02-07T23:21:21.674Z,42.45
2019-02-07T23:23:49.831Z,43.15
2019-02-07T23:26:17.906Z,43.73
2019-02-07T23:28:46.063Z,43.78
2019-02-07T23:31:14.315Z,47.85
2019-02-07T23:33:42.970Z,42.48
2019-02-07T23:36:11.056Z,45.35
2019-02-07T23:38:39.083Z,45.35
2019-02-07T23:41:10.358Z,42.35
2019-02-07T23:43:45.958Z,48.08
2019-02-07T23:46:11.173Z,51.63
2019-02-07T23:48:40.455Z,50.52
2019-02-07T23:51:08.594Z,48.10
2019-02-07T23:53:36.543Z,50.63
2019-02-07T23:56:05.747Z,49.00
2019-02-07T23:58:33.595Z,46.23
